Time;durP1;ratioP1;P1;durP2;ratioP2;P2;SDS_P1;SDS_P2;PMS_P1;PMS_P2;Temp;Humidity;BMP_temperature;BMP_pressure;BME280_temperature;BME280_humidity;BME280_pressure;Samples;Min_cycle;Max_cycle;Signal;HPM_P1;HPM_P2
2023/03/26 00:02:06;;;;;;;9.17;2.70;;;7.70;99.90;;;;;;5092728;28;20275;-55
2023/03/26 00:04:35;;;;;;;10.30;2.90;;;7.60;99.90;;;;;;5041719;28;20290;-50
2023/03/26 00:07:02;;;;;;;6.07;2.90;;;7.60;99.90;;;;;;5060827;28;20214;-51
2023/03/26 00:09:29;;;;;;;10.47;2.73;;;7.70;99.90;;;;;;5057696;28;20794;-53
2023/03/26 00:11:56;;;;;;;9.93;2.80;;;7.60;99.90;;;;;;5046740;28;20213;-52
2023/03/26 00:14:22;;;;;;;9.40;3.07;;;7.60;99.90;;;;;;5057961;28;20206;-50
2023/03/26 00:16:52;;;;;;;9.13;3.17;;;7.70;99.90;;;;;;5062075;28;20268;-53
2023/03/26 00:19:19;;;;;;;11.20;3.13;;;7.70;99.90;;;;;;5050625;28;20211;-53
2023/03/26 00:21:48;;;;;;;11.23;3.13;;;7.70;99.90;;;;;;5056360;28;20957;-54
2023/03/26 00:24:16;;;;;;;14.50;3.60;;;7.60;99.90;;;;;;5060845;28;20199;-49
2023/03/26 00:26:43;;;;;;;11.27;3.00;;;7.60;99.90;;;;;;5054306;28;20996;-54
2023/03/26 00:29:10;;;;;;;8.80;3.40;;;7.60;99.90;;;;;;5054984;28;20680;-52
2023/03/26 00:31:38;;;;;;;10.43;3.27;;;7.60;99.90;;;;;;5061086;28;20195;-52
2023/03/26 00:34:05;;;;;;;16.63;4.93;;;7.60;99.90;;;;;;5065857;28;20234;-55
2023/03/26 00:36:34;;;;;;;14.10;3.40;;;7.60;99.90;;;;;;5044734;28;20287;-51
2023/03/26 00:39:04;;;;;;;11.73;3.80;;;7.60;99.90;;;;;;5098013;28;20229;-51
2023/03/26 00:41:31;;;;;;;12.77;3.00;;;7.60;99.90;;;;;;5055414;28;20195;-52
2023/03/26 00:43:59;;;;;;;10.80;3.43;;;7.60;99.90;;;;;;5058110;28;20313;-53
2023/03/26 00:46:29;;;;;;;11.53;3.27;;;7.60;99.90;;;;;;5061021;28;20203;-52
2023/03/26 00:48:58;;;;;;;8.70;3.10;;;7.60;99.90;;;;;;5065591;28;20241;-49
2023/03/26 00:51:26;;;;;;;8.10;2.77;;;7.60;99.90;;;;;;5046284;28;20215;-51
2023/03/26 00:53:54;;;;;;;4.70;2.67;;;7.50;99.90;;;;;;5054314;28;20198;-52
2023/03/26 00:56:22;;;;;;;7.50;2.27;;;7.50;99.90;;;;;;5058775;28;20198;-46
2023/03/26 00:58:50;;;;;;;9.00;2.63;;;7.50;99.90;;;;;;5057143;28;20218;-51
2023/03/26 01:01:20;;;;;;;10.60;3.03;;;7.50;99.90;;;;;;5063181;28;20201;-51
2023/03/26 01:03:47;;;;;;;12.03;2.40;;;7.50;99.90;;;;;;5064281;28;20791;-52
2023/03/26 01:06:26;;;;;;;10.10;2.60;;;7.50;99.90;;;;;;5057982;28;20230;-49
2023/03/26 01:08:58;;;;;;;10.20;2.63;;;7.50;99.90;;;;;;5065160;28;20311;-54
2023/03/26 01:11:30;;;;;;;8.40;2.47;;;7.50;99.90;;;;;;5061281;28;20202;-49
2023/03/26 01:14:00;;;;;;;5.20;2.27;;;7.50;99.90;;;;;;5050486;28;20594;-50
2023/03/26 01:16:31;;;;;;;9.40;2.00;;;7.50;99.90;;;;;;5059833;28;20207;-50
2023/03/26 01:18:59;;;;;;;6.90;2.50;;;7.50;99.90;;;;;;5065285;28;20214;-55
2023/03/26 01:21:28;;;;;;;8.47;3.27;;;7.50;99.90;;;;;;5053957;28;20215;-54
2023/03/26 01:23:59;;;;;;;7.93;2.20;;;7.40;99.90;;;;;;5044315;28;20287;-49
2023/03/26 01:26:51;;;;;;;13.73;2.73;;;7.40;99.90;;;;;;5061842;28;20650;-49
2023/03/26 01:29:22;;;;;;;6.50;2.87;;;7.40;99.90;;;;;;5046631;28;20218;-53
2023/03/26 01:31:58;;;;;;;5.10;1.97;;;7.40;99.90;;;;;;5061091;28;20505;-49
2023/03/26 01:34:33;;;;;;;11.87;2.40;;;7.30;99.90;;;;;;5064804;28;20202;-49
2023/03/26 01:37:13;;;;;;;8.93;1.80;;;7.30;99.90;;;;;;5061787;28;20300;-51
2023/03/26 01:39:52;;;;;;;6.13;1.87;;;7.20;99.90;;;;;;5046738;28;20612;-52
2023/03/26 01:42:27;;;;;;;8.17;1.87;;;7.20;99.90;;;;;;5063726;28;20293;-50
2023/03/26 01:44:59;;;;;;;10.30;2.13;;;7.20;99.90;;;;;;5045775;28;20217;-48
2023/03/26 01:47:27;;;;;;;9.10;2.23;;;7.10;99.90;;;;;;5064780;28;20261;-49
2023/03/26 01:49:54;;;;;;;11.03;2.00;;;7.10;99.90;;;;;;5060660;28;20198;-54
2023/03/26 01:52:24;;;;;;;6.90;1.17;;;7.00;99.90;;;;;;5064467;28;20266;-50
2023/03/26 01:54:53;;;;;;;4.73;1.27;;;7.00;99.90;;;;;;5044088;28;20214;-49
2023/03/26 01:57:29;;;;;;;3.80;1.17;;;6.90;99.90;;;;;;5064501;28;20246;-52
2023/03/26 02:00:11;;;;;;;9.07;1.60;;;6.90;99.90;;;;;;5046110;28;20241;-50
2023/03/26 02:02:53;;;;;;;4.47;1.97;;;6.90;99.90;;;;;;5057329;28;20194;-50
2023/03/26 02:05:25;;;;;;;3.83;1.20;;;6.90;99.90;;;;;;5064583;28;20215;-50
2023/03/26 02:07:57;;;;;;;8.63;1.30;;;6.90;99.90;;;;;;5060510;28;20823;-49
2023/03/26 02:10:28;;;;;;;7.60;1.60;;;6.90;99.90;;;;;;5037604;28;20209;-50
2023/03/26 02:12:55;;;;;;;7.10;2.33;;;6.80;99.90;;;;;;5062717;28;20222;-50
2023/03/26 02:15:23;;;;;;;10.83;2.13;;;6.80;99.90;;;;;;5048575;28;20198;-50
2023/03/26 02:17:51;;;;;;;8.60;2.27;;;6.80;99.90;;;;;;5060713;28;20719;-49
2023/03/26 02:20:19;;;;;;;6.37;1.57;;;6.90;99.90;;;;;;5062103;28;20219;-50
2023/03/26 02:22:47;;;;;;;5.13;1.73;;;6.80;99.90;;;;;;5062134;28;20256;-54
2023/03/26 02:25:19;;;;;;;4.00;1.80;;;6.90;99.90;;;;;;5045045;28;20210;-51
2023/03/26 02:27:49;;;;;;;13.53;2.73;;;6.80;99.90;;;;;;5060908;28;21005;-50
2023/03/26 02:30:20;;;;;;;6.83;1.77;;;6.80;99.90;;;;;;5058018;28;20198;-50
2023/03/26 02:32:51;;;;;;;13.20;1.80;;;6.80;99.90;;;;;;5054753;28;20217;-53
2023/03/26 02:35:18;;;;;;;12.80;2.33;;;6.80;99.90;;;;;;5094404;28;20640;-51
2023/03/26 02:37:45;;;;;;;9.37;1.70;;;6.80;99.90;;;;;;5060010;28;20309;-51
2023/03/26 02:40:17;;;;;;;5.70;1.37;;;6.80;99.90;;;;;;5054132;28;20214;-51
2023/03/26 02:42:46;;;;;;;6.73;2.40;;;6.80;99.90;;;;;;5056176;28;20210;-54
2023/03/26 02:45:15;;;;;;;5.37;1.73;;;6.80;99.90;;;;;;5059074;28;20572;-52
2023/03/26 02:48:07;;;;;;;5.93;1.90;;;6.80;99.90;;;;;;5062064;28;20238;-48
2023/03/26 02:50:48;;;;;;;12.37;1.90;;;6.80;99.90;;;;;;5054762;28;21042;-49
2023/03/26 02:53:40;;;;;;;6.97;1.33;;;6.80;99.90;;;;;;5048379;28;20801;-51
2023/03/26 02:56:25;;;;;;;1.83;1.07;;;6.70;99.90;;;;;;5047822;28;20205;-51
2023/03/26 02:59:12;;;;;;;6.63;1.13;;;6.70;99.90;;;;;;5057111;28;20204;-51
2023/03/26 03:01:42;;;;;;;5.10;1.43;;;6.60;99.90;;;;;;5086798;28;20920;-53
2023/03/26 03:04:11;;;;;;;3.53;0.60;;;6.50;99.90;;;;;;5054899;28;20221;-50
2023/03/26 03:06:39;;;;;;;3.60;0.93;;;6.50;99.90;;;;;;5052240;28;20191;-51
2023/03/26 03:09:07;;;;;;;5.83;0.93;;;6.50;99.90;;;;;;5095862;28;20207;-50
2023/03/26 03:11:35;;;;;;;1.57;0.90;;;6.50;99.90;;;;;;5043928;28;20207;-51
2023/03/26 03:14:03;;;;;;;4.10;1.00;;;6.50;99.90;;;;;;5061391;28;20231;-53
2023/03/26 03:16:32;;;;;;;1.77;0.83;;;6.40;99.90;;;;;;5057432;28;20848;-53
2023/03/26 03:19:06;;;;;;;5.40;1.17;;;6.40;99.90;;;;;;5055818;28;20213;-53
2023/03/26 03:21:36;;;;;;;3.77;1.33;;;6.30;99.90;;;;;;5052959;28;20207;-52
2023/03/26 03:24:04;;;;;;;7.63;0.97;;;6.30;99.90;;;;;;5063006;28;20289;-51
2023/03/26 03:26:35;;;;;;;2.40;0.93;;;6.30;99.90;;;;;;5058194;28;20275;-51
2023/03/26 03:29:13;;;;;;;4.63;1.50;;;6.30;99.90;;;;;;5078517;28;20217;-48
2023/03/26 03:31:40;;;;;;;5.63;1.27;;;6.30;99.90;;;;;;5058337;28;20199;-50
2023/03/26 03:34:17;;;;;;;6.00;1.47;;;6.20;99.90;;;;;;5053443;28;20198;-50
2023/03/26 03:36:49;;;;;;;10.80;1.93;;;6.20;99.90;;;;;;5061893;28;20191;-51
2023/03/26 03:39:28;;;;;;;4.37;1.57;;;6.20;99.90;;;;;;5050401;28;20214;-48
2023/03/26 03:41:56;;;;;;;6.10;1.93;;;6.20;99.90;;;;;;5055019;28;20214;-52
2023/03/26 03:44:22;;;;;;;7.47;1.20;;;6.20;99.90;;;;;;5041753;28;20920;-54
2023/03/26 03:46:52;;;;;;;7.77;1.17;;;6.20;99.90;;;;;;5061112;28;20681;-52
2023/03/26 03:49:21;;;;;;;7.17;1.40;;;6.20;99.90;;;;;;5085043;28;20209;-51
2023/03/26 03:51:47;;;;;;;4.07;1.30;;;6.20;99.90;;;;;;5061151;28;20195;-52
2023/03/26 03:54:24;;;;;;;6.57;1.70;;;6.20;99.90;;;;;;5050442;28;20198;-54
2023/03/26 03:57:02;;;;;;;7.93;1.70;;;6.20;99.90;;;;;;5094510;28;20229;-50
2023/03/26 03:59:51;;;;;;;6.77;1.50;;;6.20;99.90;;;;;;5047070;28;20238;-54
2023/03/26 04:02:24;;;;;;;7.47;1.70;;;6.20;99.90;;;;;;5051036;28;20995;-51
2023/03/26 04:04:57;;;;;;;3.17;1.00;;;6.20;99.90;;;;;;5063996;28;20206;-51
2023/03/26 04:07:24;;;;;;;5.80;1.50;;;6.20;99.90;;;;;;5059471;28;20233;-52
2023/03/26 04:10:05;;;;;;;6.53;1.20;;;6.20;99.90;;;;;;5050992;28;20291;-55
2023/03/26 04:12:52;;;;;;;6.40;1.73;;;6.20;99.90;;;;;;5062402;28;20996;-50
2023/03/26 04:15:23;;;;;;;3.53;1.23;;;6.20;99.90;;;;;;5048893;28;20704;-51
2023/03/26 04:17:50;;;;;;;6.63;1.40;;;6.20;99.90;;;;;;5061248;28;20260;-49
2023/03/26 04:20:19;;;;;;;6.80;1.20;;;6.20;99.90;;;;;;5075407;28;20709;-52
2023/03/26 04:22:48;;;;;;;7.13;1.67;;;6.20;99.90;;;;;;5049331;28;20210;-50
2023/03/26 04:25:16;;;;;;;7.63;1.43;;;6.20;99.90;;;;;;5058171;28;20666;-52
2023/03/26 04:27:48;;;;;;;7.97;1.67;;;6.20;99.90;;;;;;5063085;28;20215;-51
2023/03/26 04:30:20;;;;;;;5.60;1.77;;;6.10;99.90;;;;;;5048634;28;20677;-53
2023/03/26 04:32:57;;;;;;;8.40;1.50;;;6.10;99.90;;;;;;5060225;28;20964;-55
2023/03/26 04:35:29;;;;;;;9.50;1.20;;;6.10;99.90;;;;;;5092313;28;20289;-52
2023/03/26 04:37:56;;;;;;;6.63;1.87;;;6.10;99.90;;;;;;5061402;28;20203;-52
2023/03/26 04:40:29;;;;;;;6.03;1.43;;;6.10;99.90;;;;;;5057325;28;20291;-52
2023/03/26 04:43:05;;;;;;;8.57;1.63;;;6.10;99.90;;;;;;5090690;28;20303;-53
2023/03/26 04:45:51;;;;;;;7.13;1.60;;;6.10;99.90;;;;;;5046133;28;20264;-49
2023/03/26 04:48:20;;;;;;;4.90;1.17;;;6.10;99.90;;;;;;5098298;28;20219;-50
2023/03/26 04:50:49;;;;;;;8.67;1.57;;;6.00;99.90;;;;;;5056419;28;20199;-49
2023/03/26 04:53:21;;;;;;;7.50;1.20;;;5.90;99.90;;;;;;5059555;28;20280;-50
2023/03/26 04:56:00;;;;;;;5.20;1.80;;;5.90;99.90;;;;;;5058288;28;20204;-54
2023/03/26 04:58:59;;;;;;;6.60;1.10;;;5.80;99.90;;;;;;5054851;28;20227;-54
2023/03/26 05:01:29;;;;;;;4.37;1.07;;;5.80;99.90;;;;;;5081335;28;20222;-53
2023/03/26 05:03:57;;;;;;;6.93;1.13;;;5.70;99.90;;;;;;5059921;28;20195;-52
2023/03/26 05:06:27;;;;;;;3.67;0.90;;;5.70;99.90;;;;;;5098265;28;20587;-54
2023/03/26 05:08:55;;;;;;;8.43;1.17;;;5.60;99.90;;;;;;5053820;28;20219;-51
2023/03/26 05:11:41;;;;;;;3.70;0.90;;;5.60;99.90;;;;;;5063378;28;20209;-52
2023/03/26 05:14:09;;;;;;;5.30;1.03;;;5.60;99.90;;;;;;5055581;28;20198;-53
2023/03/26 05:16:38;;;;;;;3.43;1.03;;;5.60;99.90;;;;;;5041717;28;20225;-48
2023/03/26 05:19:08;;;;;;;6.80;1.17;;;5.60;99.90;;;;;;5062227;28;20314;-52
2023/03/26 05:21:37;;;;;;;3.07;0.83;;;5.60;99.90;;;;;;5089633;28;20217;-49
2023/03/26 05:24:05;;;;;;;3.80;1.03;;;5.60;99.90;;;;;;5046050;28;20875;-50
2023/03/26 05:26:32;;;;;;;2.80;0.60;;;5.60;99.90;;;;;;5075849;28;20213;-47
2023/03/26 05:29:01;;;;;;;6.10;0.97;;;5.60;99.90;;;;;;5037243;28;20211;-53
2023/03/26 05:31:44;;;;;;;4.63;1.10;;;5.70;99.90;;;;;;5039731;28;20205;-51
2023/03/26 05:34:12;;;;;;;5.13;1.10;;;5.60;99.90;;;;;;5062163;28;20199;-51
2023/03/26 05:36:41;;;;;;;4.50;1.30;;;5.60;99.90;;;;;;5060446;28;20254;-52
2023/03/26 05:39:26;;;;;;;5.43;1.30;;;5.60;99.90;;;;;;5053042;28;20202;-52
2023/03/26 05:42:12;;;;;;;7.90;1.33;;;5.70;99.90;;;;;;5063652;28;20239;-52
2023/03/26 05:44:54;;;;;;;6.03;1.30;;;5.70;99.90;;;;;;5052074;28;21110;-51
2023/03/26 05:47:27;;;;;;;6.43;1.17;;;5.70;99.90;;;;;;5047946;28;20218;-49
2023/03/26 05:49:54;;;;;;;5.50;1.30;;;5.70;99.90;;;;;;5059476;28;20872;-53
2023/03/26 05:52:22;;;;;;;8.33;1.33;;;5.70;99.90;;;;;;5057333;28;20217;-51
2023/03/26 05:55:17;;;;;;;4.17;1.30;;;5.70;99.90;;;;;;5063585;28;20210;-53
2023/03/26 05:58:03;;;;;;;5.60;1.37;;;5.70;99.90;;;;;;5061965;28;20234;-51
2023/03/26 06:00:48;;;;;;;6.70;1.33;;;5.70;99.90;;;;;;5052991;28;20355;-51
2023/03/26 06:03:23;;;;;;;8.03;1.60;;;5.80;99.90;;;;;;5047437;28;20197;-54
2023/03/26 06:06:16;;;;;;;8.73;1.60;;;5.70;99.90;;;;;;5057292;28;20256;-49
2023/03/26 06:08:52;;;;;;;3.77;1.40;;;5.70;99.90;;;;;;5048067;28;20237;-50
2023/03/26 06:11:19;;;;;;;8.53;2.40;;;5.70;99.90;;;;;;5062724;28;20629;-52
2023/03/26 06:13:47;;;;;;;7.40;2.07;;;5.70;99.90;;;;;;5059493;28;20364;-48
2023/03/26 06:16:16;;;;;;;8.07;1.60;;;5.70;99.90;;;;;;5054364;28;20213;-50
2023/03/26 06:18:52;;;;;;;5.03;1.70;;;5.80;99.90;;;;;;5042783;28;20228;-52
2023/03/26 06:21:20;;;;;;;5.67;1.80;;;5.80;99.90;;;;;;5063711;28;20230;-49
2023/03/26 06:23:53;;;;;;;5.77;2.20;;;5.80;99.90;;;;;;5052463;28;20206;-52
2023/03/26 06:26:34;;;;;;;9.73;1.73;;;5.90;99.90;;;;;;5045897;28;20255;-53
2023/03/26 06:29:39;;;;;;;9.93;2.03;;;5.90;99.90;;;;;;5045230;28;20195;-52
2023/03/26 06:32:17;;;;;;;7.20;1.50;;;5.90;99.90;;;;;;5046463;28;20704;-51
2023/03/26 06:34:49;;;;;;;10.13;1.40;;;5.90;99.90;;;;;;5046858;28;20574;-51
2023/03/26 06:37:17;;;;;;;7.23;1.47;;;5.90;99.90;;;;;;5057927;28;20226;-49
2023/03/26 06:39:46;;;;;;;6.53;1.50;;;5.90;99.90;;;;;;5049473;28;20221;-50
2023/03/26 06:42:16;;;;;;;6.93;1.67;;;5.90;99.90;;;;;;5070290;28;20616;-51
2023/03/26 06:45:04;;;;;;;9.37;1.70;;;6.00;99.90;;;;;;5061840;28;20210;-50
2023/03/26 06:47:34;;;;;;;11.83;2.20;;;6.00;99.90;;;;;;5044818;28;20232;-46
2023/03/26 06:50:34;;;;;;;7.77;1.60;;;6.10;99.90;;;;;;5071438;28;20241;-51
2023/03/26 06:53:26;;;;;;;6.63;1.70;;;6.10;99.90;;;;;;5052942;28;20198;-50
2023/03/26 06:56:02;;;;;;;5.13;1.37;;;6.10;99.90;;;;;;5052002;28;20781;-50
2023/03/26 06:58:48;;;;;;;6.97;1.70;;;6.10;99.90;;;;;;5059535;28;20257;-49
2023/03/26 07:01:41;;;;;;;11.80;2.47;;;6.10;99.90;;;;;;5051205;28;20214;-47
2023/03/26 07:04:26;;;;;;;7.53;1.33;;;6.10;99.90;;;;;;5061404;28;20217;-53
2023/03/26 07:07:13;;;;;;;4.83;1.57;;;6.10;99.90;;;;;;5046615;28;20769;-53
2023/03/26 07:09:58;;;;;;;4.80;1.40;;;6.10;99.90;;;;;;5041971;28;20226;-52
2023/03/26 07:12:44;;;;;;;9.80;1.90;;;6.10;99.90;;;;;;5059602;28;20244;-49
2023/03/26 07:15:30;;;;;;;9.43;2.27;;;6.10;99.90;;;;;;5059204;28;20701;-50
2023/03/26 07:18:10;;;;;;;6.63;1.60;;;6.20;99.90;;;;;;5066330;28;20225;-45
2023/03/26 07:20:41;;;;;;;12.00;1.63;;;6.20;99.90;;;;;;5059761;28;20923;-51
2023/03/26 07:23:10;;;;;;;8.07;1.77;;;6.20;99.90;;;;;;5037492;28;20712;-49
2023/03/26 07:26:15;;;;;;;8.77;1.90;;;6.20;99.90;;;;;;5047443;28;20219;-50
2023/03/26 07:29:01;;;;;;;6.93;1.93;;;6.20;99.90;;;;;;5091801;28;20613;-52
2023/03/26 07:31:55;;;;;;;9.93;2.10;;;6.20;99.90;;;;;;5049876;28;20329;-52
2023/03/26 07:34:59;;;;;;;6.90;1.63;;;6.20;99.90;;;;;;5050301;28;20214;-51
2023/03/26 07:37:47;;;;;;;11.23;2.03;;;6.20;99.90;;;;;;5042767;28;20868;-53
2023/03/26 07:40:46;;;;;;;9.73;2.10;;;6.20;99.90;;;;;;5047171;28;20194;-53
2023/03/26 07:44:09;;;;;;;10.13;2.13;;;6.30;99.90;;;;;;5058697;28;20214;-54
2023/03/26 07:46:57;;;;;;;11.50;2.10;;;6.30;99.90;;;;;;5067226;28;20253;-52
2023/03/26 07:49:36;;;;;;;14.57;2.30;;;6.30;99.90;;;;;;5051661;28;20217;-52
2023/03/26 07:52:17;;;;;;;14.40;2.43;;;6.40;99.90;;;;;;5082129;28;20202;-52
2023/03/26 07:54:55;;;;;;;12.07;2.60;;;6.30;99.90;;;;;;5051947;28;20293;-51
2023/03/26 07:57:55;;;;;;;13.37;2.13;;;6.30;99.90;;;;;;5056368;28;20728;-51
2023/03/26 08:00:37;;;;;;;11.77;2.33;;;6.30;99.90;;;;;;5060793;28;20289;-51
2023/03/26 08:03:25;;;;;;;9.93;2.40;;;6.30;99.90;;;;;;5057235;28;20202;-49
2023/03/26 08:06:21;;;;;;;9.17;2.07;;;6.30;99.90;;;;;;5056377;28;20221;-51
2023/03/26 08:09:02;;;;;;;12.20;2.53;;;6.30;99.90;;;;;;5044285;28;20222;-51
2023/03/26 08:11:40;;;;;;;9.60;2.20;;;6.40;99.90;;;;;;5048397;28;20202;-51
2023/03/26 08:14:21;;;;;;;15.67;2.27;;;6.40;99.90;;;;;;5053730;28;20202;-53
2023/03/26 08:16:54;;;;;;;11.77;2.27;;;6.50;99.90;;;;;;5062986;28;20205;-49
2023/03/26 08:19:36;;;;;;;10.87;2.30;;;6.50;99.90;;;;;;5056526;28;20194;-51
2023/03/26 08:22:11;;;;;;;12.13;2.57;;;6.50;99.90;;;;;;5055210;28;20889;-54
2023/03/26 08:24:47;;;;;;;14.80;2.40;;;6.50;99.90;;;;;;5047641;28;20291;-52
2023/03/26 08:27:22;;;;;;;13.63;2.77;;;6.50;99.90;;;;;;5049846;28;20585;-48
2023/03/26 08:29:56;;;;;;;11.70;2.47;;;6.50;99.90;;;;;;5056106;28;20592;-49
2023/03/26 08:32:26;;;;;;;9.93;2.13;;;6.60;99.90;;;;;;5050813;28;20198;-49
2023/03/26 08:34:53;;;;;;;12.70;2.27;;;6.70;99.90;;;;;;5054753;28;20202;-49
2023/03/26 08:37:20;;;;;;;16.40;2.53;;;6.80;99.90;;;;;;5052299;28;20211;-48
2023/03/26 08:39:47;;;;;;;9.53;2.33;;;6.70;99.90;;;;;;5043995;28;20720;-50
2023/03/26 08:42:51;;;;;;;11.47;2.23;;;6.70;99.90;;;;;;5049324;28;20603;-51
2023/03/26 08:45:56;;;;;;;17.57;2.30;;;6.70;99.90;;;;;;5056107;28;20672;-46
2023/03/26 08:48:59;;;;;;;14.30;1.77;;;6.70;99.90;;;;;;5062202;28;20222;-49
2023/03/26 08:51:52;;;;;;;8.37;1.80;;;6.70;99.90;;;;;;5045430;28;20203;-49
2023/03/26 08:54:46;;;;;;;19.10;2.67;;;6.70;99.90;;;;;;5074194;27;20207;-51
2023/03/26 08:57:28;;;;;;;7.87;1.63;;;6.70;99.90;;;;;;5056747;28;20225;-53
2023/03/26 09:00:23;;;;;;;14.57;2.10;;;6.80;99.90;;;;;;5055084;28;20206;-51
2023/03/26 09:03:23;;;;;;;7.27;2.70;;;6.90;99.90;;;;;;5060507;28;20214;-52
2023/03/26 09:06:38;;;;;;;11.40;2.23;;;7.00;99.90;;;;;;5056739;28;20214;-53
2023/03/26 09:09:46;;;;;;;10.17;2.17;;;7.10;99.90;;;;;;5058693;28;20692;-51
2023/03/26 09:12:42;;;;;;;19.37;2.80;;;7.20;99.90;;;;;;5041510;28;20206;-51
2023/03/26 09:15:37;;;;;;;13.50;2.80;;;7.30;99.90;;;;;;5053162;28;20209;-53
2023/03/26 09:18:36;;;;;;;7.97;2.03;;;7.30;99.90;;;;;;5063726;28;20688;-49
2023/03/26 09:21:28;;;;;;;21.43;2.27;;;7.20;99.90;;;;;;5055846;28;20195;-52
2023/03/26 09:24:18;;;;;;;10.90;2.10;;;7.20;99.90;;;;;;5058647;28;20206;-49
2023/03/26 09:26:50;;;;;;;7.83;2.23;;;7.20;99.90;;;;;;5042373;28;20199;-53
2023/03/26 09:29:58;;;;;;;10.83;2.00;;;7.30;99.90;;;;;;5050232;28;20199;-49
2023/03/26 09:33:01;;;;;;;8.37;2.47;;;7.50;99.90;;;;;;5052727;28;20654;-49
2023/03/26 09:35:46;;;;;;;7.63;1.77;;;7.60;99.90;;;;;;5052189;28;20223;-50
2023/03/26 09:38:33;;;;;;;10.33;2.23;;;7.70;99.90;;;;;;5059940;28;20688;-51
2023/03/26 09:41:07;;;;;;;10.03;1.87;;;7.70;99.90;;;;;;5035573;28;20626;-51
2023/03/26 09:44:07;;;;;;;15.03;2.47;;;7.60;99.90;;;;;;5052523;28;21047;-52
2023/03/26 09:47:24;;;;;;;12.47;3.13;;;7.70;99.90;;;;;;5042644;28;20261;-51
2023/03/26 09:50:05;;;;;;;9.17;1.97;;;7.70;99.90;;;;;;5062045;28;20229;-52
2023/03/26 09:52:56;;;;;;;10.03;1.77;;;7.60;99.90;;;;;;5050042;28;20202;-52
2023/03/26 09:55:38;;;;;;;10.80;2.50;;;7.70;99.90;;;;;;5050832;28;20638;-48
2023/03/26 09:58:23;;;;;;;9.23;2.40;;;7.70;99.90;;;;;;5046747;28;20230;-49
2023/03/26 10:00:59;;;;;;;12.60;1.93;;;7.50;99.90;;;;;;5056580;28;20199;-53
2023/03/26 10:03:38;;;;;;;9.83;1.93;;;7.50;99.90;;;;;;5052688;28;20214;-50
2023/03/26 10:06:20;;;;;;;8.60;1.87;;;7.50;99.90;;;;;;5058376;28;20221;-46
2023/03/26 10:08:57;;;;;;;7.47;2.47;;;7.80;99.90;;;;;;5054803;28;20257;-51
2023/03/26 10:11:40;;;;;;;5.33;2.17;;;8.00;99.90;;;;;;5044182;28;20217;-55
2023/03/26 10:14:17;;;;;;;8.00;2.50;;;8.10;99.90;;;;;;5038762;28;20806;-49
2023/03/26 10:16:55;;;;;;;16.27;2.27;;;8.00;99.90;;;;;;5054626;28;20289;-52
2023/03/26 10:19:35;;;;;;;14.57;2.37;;;7.90;99.90;;;;;;5050074;28;20203;-48
2023/03/26 10:22:36;;;;;;;13.17;2.70;;;7.90;99.90;;;;;;5049314;28;20230;-55
2023/03/26 10:25:22;;;;;;;6.13;2.20;;;8.00;99.90;;;;;;5050034;28;20214;-50
2023/03/26 10:27:59;;;;;;;8.37;2.27;;;8.00;99.90;;;;;;5036611;28;20218;-52
2023/03/26 10:31:13;;;;;;;7.80;1.77;;;8.10;99.90;;;;;;5057451;28;20233;-52
2023/03/26 10:33:54;;;;;;;10.17;2.23;;;8.20;99.90;;;;;;5044206;28;20306;-51
2023/03/26 10:36:29;;;;;;;12.53;2.37;;;8.50;99.90;;;;;;5058748;28;20202;-51
2023/03/26 10:39:18;;;;;;;10.13;1.80;;;8.70;99.90;;;;;;5056502;28;20623;-53
2023/03/26 10:41:56;;;;;;;11.13;2.03;;;8.90;99.90;;;;;;5053332;28;20214;-54
2023/03/26 10:44:43;;;;;;;10.30;2.13;;;8.70;99.90;;;;;;5034837;28;20203;-49
2023/03/26 10:47:23;;;;;;;8.10;1.73;;;8.50;99.90;;;;;;5047081;28;20633;-47
2023/03/26 10:50:14;;;;;;;10.10;1.70;;;8.60;99.90;;;;;;5055091;28;20199;-52
2023/03/26 10:52:49;;;;;;;9.23;1.83;;;8.70;99.90;;;;;;5056331;28;20227;-51
2023/03/26 10:55:22;;;;;;;7.03;1.57;;;8.80;99.90;;;;;;5052838;28;20210;-52
2023/03/26 10:57:54;;;;;;;9.57;1.80;;;8.80;99.90;;;;;;5052816;28;20226;-51
2023/03/26 11:00:24;;;;;;;8.97;2.27;;;8.80;99.90;;;;;;5028663;28;20202;-48
2023/03/26 11:03:11;;;;;;;5.87;1.80;;;8.80;99.90;;;;;;5058127;28;20241;-50
2023/03/26 11:05:48;;;;;;;13.90;2.10;;;8.50;99.90;;;;;;5052884;28;20190;-51
2023/03/26 11:08:21;;;;;;;7.00;1.50;;;8.40;99.90;;;;;;5053440;28;20607;-48
2023/03/26 11:10:55;;;;;;;9.50;1.77;;;8.40;99.90;;;;;;5055053;28;20655;-51
2023/03/26 11:13:38;;;;;;;11.60;2.40;;;8.30;99.90;;;;;;5047479;28;20198;-55
2023/03/26 11:16:13;;;;;;;13.83;2.07;;;8.60;99.90;;;;;;5035519;28;20206;-50
2023/03/26 11:18:51;;;;;;;18.70;2.70;;;8.70;99.90;;;;;;5060012;28;20222;-53
2023/03/26 11:21:24;;;;;;;7.63;1.83;;;9.00;99.90;;;;;;5043892;28;20202;-49
2023/03/26 11:24:04;;;;;;;8.07;1.93;;;9.00;99.90;;;;;;5061017;28;20219;-54
2023/03/26 11:26:40;;;;;;;7.10;1.60;;;9.00;99.90;;;;;;5046572;28;20225;-51
2023/03/26 11:29:27;;;;;;;8.97;1.73;;;8.90;99.90;;;;;;5051335;28;20206;-47
2023/03/26 11:32:03;;;;;;;12.43;2.23;;;8.70;99.90;;;;;;5044150;28;20241;-54
2023/03/26 11:34:35;;;;;;;8.53;2.00;;;8.70;99.90;;;;;;5047237;28;20200;-52
2023/03/26 11:37:08;;;;;;;8.83;1.70;;;8.70;99.90;;;;;;5052664;28;20302;-52
2023/03/26 11:39:44;;;;;;;10.80;2.40;;;8.80;99.90;;;;;;5059260;28;20202;-53
2023/03/26 11:42:14;;;;;;;5.27;1.93;;;8.70;99.90;;;;;;5051417;28;20225;-49
2023/03/26 11:45:03;;;;;;;12.60;2.20;;;8.70;99.90;;;;;;5047746;28;20576;-50
2023/03/26 11:47:38;;;;;;;7.13;1.83;;;8.70;99.90;;;;;;5040496;28;20361;-52
2023/03/26 11:50:09;;;;;;;11.33;1.90;;;9.00;99.90;;;;;;5079140;28;20211;-45
2023/03/26 11:52:36;;;;;;;10.70;2.13;;;9.20;99.90;;;;;;5052393;28;20283;-51
2023/03/26 11:55:03;;;;;;;4.67;1.60;;;9.40;99.90;;;;;;5063959;28;20304;-50
2023/03/26 11:57:32;;;;;;;11.47;2.23;;;9.50;99.90;;;;;;5053632;28;22794;-54
2023/03/26 12:00:06;;;;;;;9.63;2.20;;;9.40;99.90;;;;;;5051880;28;20252;-48
2023/03/26 12:02:41;;;;;;;10.10;1.70;;;9.30;99.90;;;;;;5044104;28;20219;-52
2023/03/26 12:05:18;;;;;;;6.97;1.77;;;9.10;99.90;;;;;;5055198;28;20680;-50
2023/03/26 12:07:55;;;;;;;6.97;1.83;;;8.90;99.90;;;;;;5036553;28;20514;-47
2023/03/26 12:10:30;;;;;;;7.03;1.50;;;8.90;99.90;;;;;;5055011;28;20194;-55
2023/03/26 12:13:00;;;;;;;8.83;1.83;;;8.90;99.90;;;;;;5083625;28;20400;-58
2023/03/26 12:15:29;;;;;;;10.83;2.10;;;9.00;99.90;;;;;;5051470;28;20699;-55
2023/03/26 12:18:18;;;;;;;13.03;1.93;;;9.10;99.90;;;;;;5049242;28;20277;-57
2023/03/26 12:20:48;;;;;;;8.93;1.73;;;9.20;99.90;;;;;;5052759;28;20325;-56
2023/03/26 12:23:36;;;;;;;7.97;1.90;;;9.20;99.90;;;;;;5042329;28;20215;-53
2023/03/26 12:26:12;;;;;;;10.17;1.70;;;9.00;99.90;;;;;;5066904;28;20199;-56
2023/03/26 12:28:44;;;;;;;4.67;1.40;;;8.90;99.90;;;;;;5055612;28;20230;-57
2023/03/26 12:31:16;;;;;;;9.07;1.60;;;8.80;99.90;;;;;;5065101;28;20645;-52
2023/03/26 12:33:51;;;;;;;10.07;1.87;;;8.90;99.90;;;;;;5041129;28;20817;-52
2023/03/26 12:36:25;;;;;;;9.43;1.67;;;9.00;99.90;;;;;;5059973;28;20620;-53
2023/03/26 12:38:52;;;;;;;5.13;2.03;;;9.10;99.90;;;;;;5041283;28;20234;-56
2023/03/26 12:41:21;;;;;;;8.27;2.20;;;9.10;99.90;;;;;;5064571;28;20190;-50
2023/03/26 12:43:49;;;;;;;7.00;1.70;;;9.10;99.90;;;;;;5051986;28;21709;-52
2023/03/26 12:46:28;;;;;;;9.13;1.90;;;9.20;99.90;;;;;;5056325;28;20209;-48
2023/03/26 12:48:58;;;;;;;7.27;1.73;;;9.10;99.90;;;;;;5040752;28;20219;-53
2023/03/26 12:51:36;;;;;;;19.37;2.67;;;9.20;99.90;;;;;;5059338;28;20226;-49
2023/03/26 12:54:29;;;;;;;8.83;2.17;;;9.20;99.90;;;;;;5048995;28;20285;-51
2023/03/26 12:57:12;;;;;;;8.37;2.00;;;9.20;99.90;;;;;;5056979;28;20215;-53
2023/03/26 12:59:53;;;;;;;9.27;1.73;;;9.00;99.90;;;;;;5051325;28;20226;-54
2023/03/26 13:02:40;;;;;;;9.13;2.10;;;8.90;99.90;;;;;;5057876;28;20237;-52
2023/03/26 13:05:21;;;;;;;7.13;1.93;;;9.00;99.90;;;;;;5060206;28;20783;-56
2023/03/26 13:08:01;;;;;;;3.13;1.43;;;9.00;99.90;;;;;;5070279;28;20241;-53
2023/03/26 13:10:45;;;;;;;7.40;1.50;;;9.10;99.90;;;;;;5046914;28;20230;-51
2023/03/26 13:14:00;;;;;;;4.70;1.27;;;9.30;99.90;;;;;;5052205;28;20213;-48
2023/03/26 13:16:37;;;;;;;8.30;1.57;;;9.50;99.90;;;;;;5049670;28;20206;-50
2023/03/26 13:19:08;;;;;;;8.47;2.87;;;9.50;99.90;;;;;;5057726;28;20201;-52
2023/03/26 13:22:10;;;;;;;5.87;1.93;;;9.50;99.90;;;;;;5049943;28;20230;-51
2023/03/26 13:24:48;;;;;;;9.30;2.47;;;9.70;99.90;;;;;;5052261;28;20194;-52
2023/03/26 13:27:26;;;;;;;7.80;2.30;;;9.80;99.90;;;;;;5050445;28;20860;-53
2023/03/26 13:30:00;;;;;;;9.07;1.87;;;10.00;99.90;;;;;;5050631;28;20285;-51
2023/03/26 13:32:39;;;;;;;10.17;1.90;;;10.40;99.90;;;;;;5047847;28;20226;-52
2023/03/26 13:35:19;;;;;;;9.23;1.80;;;10.80;99.90;;;;;;5050367;28;20293;-54
2023/03/26 13:37:55;;;;;;;5.23;1.40;;;10.90;99.90;;;;;;5039835;28;20223;-53
2023/03/26 13:40:28;;;;;;;7.33;2.10;;;10.80;99.70;;;;;;5045423;28;20329;-47
2023/03/26 13:43:11;;;;;;;6.17;1.60;;;10.80;99.10;;;;;;5057332;28;20202;-49
2023/03/26 13:45:51;;;;;;;6.33;1.63;;;10.70;99.50;;;;;;5064531;28;20198;-55
2023/03/26 13:48:23;;;;;;;6.07;1.90;;;10.70;98.50;;;;;;5049562;28;20276;-51